createdAt,value
2023-05-22T00:00:36.325Z,0.00
2023-05-22T00:01:36.297Z,0.00
2023-05-22T00:02:36.416Z,0.00
2023-05-22T00:03:36.621Z,0.00
2023-05-22T00:04:36.240Z,0.00
2023-05-22T00:05:36.261Z,0.00
2023-05-22T00:06:36.204Z,0.00
2023-05-22T00:07:36.209Z,0.00
2023-05-22T00:08:36.188Z,0.00
2023-05-22T00:09:36.185Z,0.00
2023-05-22T00:10:36.164Z,0.00
2023-05-22T00:11:36.172Z,0.00
2023-05-22T00:12:36.139Z,0.00
2023-05-22T00:13:36.148Z,0.00
2023-05-22T00:14:36.131Z,0.00
2023-05-22T00:15:36.137Z,0.00
2023-05-22T00:16:36.171Z,0.00
2023-05-22T00:17:36.111Z,0.00
2023-05-22T00:18:36.080Z,0.00
2023-05-22T00:19:36.185Z,0.00
2023-05-22T00:20:36.073Z,0.00
2023-05-22T00:21:36.036Z,0.00
2023-05-22T00:22:36.037Z,0.00
2023-05-22T00:23:36.050Z,0.00
2023-05-22T00:24:36.003Z,0.00
2023-05-22T00:25:35.995Z,0.00
2023-05-22T00:26:35.988Z,0.00
2023-05-22T00:27:35.989Z,0.00
2023-05-22T00:28:35.998Z,0.00
2023-05-22T00:29:35.954Z,0.00
2023-05-22T00:30:35.935Z,0.00
2023-05-22T00:31:35.929Z,0.00
2023-05-22T00:32:35.966Z,0.00
2023-05-22T00:33:35.903Z,0.00
2023-05-22T00:34:35.953Z,0.00
2023-05-22T00:35:35.881Z,0.00
2023-05-22T00:36:35.876Z,0.00
2023-05-22T00:37:35.873Z,0.00
2023-05-22T00:38:35.868Z,0.00
2023-05-22T00:39:35.840Z,0.00
2023-05-22T00:40:35.847Z,0.00
2023-05-22T00:41:35.837Z,0.00
2023-05-22T00:42:35.824Z,0.00
2023-05-22T00:43:35.800Z,0.00
2023-05-22T00:44:35.788Z,0.00
2023-05-22T00:45:35.772Z,0.00
2023-05-22T00:46:35.800Z,0.00
2023-05-22T00:47:35.780Z,0.00
2023-05-22T00:48:35.765Z,0.00
2023-05-22T00:49:35.729Z,0.00
2023-05-22T00:50:35.753Z,0.00
2023-05-22T00:51:35.717Z,0.00
2023-05-22T00:52:35.709Z,0.00
2023-05-22T00:53:35.688Z,0.00
2023-05-22T00:54:35.689Z,0.00
2023-05-22T00:55:35.691Z,0.00
2023-05-22T00:56:35.657Z,0.00
2023-05-22T00:57:35.638Z,0.00
2023-05-22T00:58:35.630Z,0.00
2023-05-22T00:59:35.622Z,0.00
2023-05-22T01:00:35.622Z,0.00
2023-05-22T01:01:35.628Z,0.00
2023-05-22T01:02:35.652Z,0.00
2023-05-22T01:03:35.638Z,0.00
2023-05-22T01:04:35.579Z,0.00
2023-05-22T01:05:35.573Z,0.00
2023-05-22T01:06:35.548Z,0.00
2023-05-22T01:07:35.536Z,0.00
2023-05-22T01:08:35.521Z,0.00
2023-05-22T01:09:35.516Z,0.00
2023-05-22T01:10:35.499Z,0.00
2023-05-22T01:11:35.493Z,0.00
2023-05-22T01:12:35.471Z,0.00
2023-05-22T01:13:35.464Z,0.00
2023-05-22T01:14:35.474Z,0.00
2023-05-22T01:15:35.445Z,0.00
2023-05-22T01:16:35.477Z,0.00
2023-05-22T01:17:35.473Z,0.00
2023-05-22T01:18:35.414Z,0.00
2023-05-22T01:19:35.469Z,0.00
2023-05-22T01:20:35.471Z,0.00
2023-05-22T01:21:35.372Z,0.00
2023-05-22T01:22:35.387Z,0.00
2023-05-22T01:23:35.368Z,0.00
2023-05-22T01:24:35.345Z,0.00
2023-05-22T01:25:35.334Z,0.00
2023-05-22T01:26:35.353Z,0.00
2023-05-22T01:27:35.426Z,0.00
2023-05-22T01:28:35.334Z,0.00
2023-05-22T01:29:35.305Z,0.00
2023-05-22T01:30:35.309Z,0.00
2023-05-22T01:31:35.260Z,0.00
2023-05-22T01:32:35.367Z,0.00
2023-05-22T01:33:35.306Z,0.00
2023-05-22T01:34:35.227Z,0.00
2023-05-22T01:35:35.235Z,0.00
2023-05-22T01:36:35.223Z,0.00
2023-05-22T01:37:35.199Z,0.00
2023-05-22T01:38:35.230Z,0.00
2023-05-22T01:39:35.176Z,0.00
2023-05-22T01:40:35.157Z,0.00
2023-05-22T01:41:35.163Z,0.00
2023-05-22T01:42:35.153Z,0.00
2023-05-22T01:43:35.150Z,0.00
2023-05-22T01:44:35.129Z,0.00
2023-05-22T01:45:35.137Z,0.00
2023-05-22T01:46:35.097Z,0.00
2023-05-22T01:47:35.143Z,0.00
2023-05-22T01:48:35.082Z,0.00
2023-05-22T01:49:35.076Z,0.00
2023-05-22T01:50:35.066Z,0.00
2023-05-22T01:51:35.049Z,0.00
2023-05-22T01:52:35.039Z,0.00
2023-05-22T01:53:35.019Z,0.00
2023-05-22T01:54:35.004Z,0.00
2023-05-22T01:55:35.044Z,0.00
2023-05-22T01:56:35.002Z,0.00
2023-05-22T01:57:34.980Z,0.00
2023-05-22T01:58:34.978Z,0.00
2023-05-22T01:59:34.956Z,0.00
2023-05-22T02:00:34.954Z,0.00
2023-05-22T02:01:34.959Z,0.00
2023-05-22T02:02:34.967Z,0.00
2023-05-22T02:03:35.024Z,0.00
2023-05-22T02:04:34.935Z,0.00
2023-05-22T02:05:34.895Z,0.00
2023-05-22T02:06:34.878Z,0.00
2023-05-22T02:07:34.867Z,0.00
2023-05-22T02:08:34.857Z,0.00
2023-05-22T02:09:34.844Z,0.00
2023-05-22T02:10:34.846Z,0.00
2023-05-22T02:11:34.828Z,0.00
2023-05-22T02:12:34.810Z,0.00
2023-05-22T02:13:34.805Z,0.00
2023-05-22T02:14:34.804Z,0.00
2023-05-22T02:15:34.818Z,0.00
2023-05-22T02:16:34.772Z,0.00
2023-05-22T02:17:34.825Z,0.00
2023-05-22T02:18:34.745Z,0.00
2023-05-22T02:19:34.869Z,0.00
2023-05-22T02:20:34.737Z,0.00
2023-05-22T02:21:34.719Z,0.00
2023-05-22T02:22:34.699Z,0.00
2023-05-22T02:23:34.694Z,0.00
2023-05-22T02:24:34.686Z,0.00
2023-05-22T02:25:34.677Z,0.00
2023-05-22T02:26:34.658Z,0.00
2023-05-22T02:27:34.643Z,0.00
2023-05-22T02:28:34.658Z,0.00
2023-05-22T02:29:34.641Z,0.00
2023-05-22T02:30:34.636Z,0.00
2023-05-22T02:31:34.653Z,0.00
2023-05-22T02:32:34.623Z,0.00
2023-05-22T02:33:34.605Z,0.00
2023-05-22T02:34:34.585Z,0.00
2023-05-22T02:35:34.575Z,0.00
2023-05-22T02:36:34.544Z,0.00
2023-05-22T02:37:34.558Z,0.00
2023-05-22T02:38:34.572Z,0.00
2023-05-22T02:39:34.528Z,0.00
2023-05-22T02:40:34.516Z,0.00
2023-05-22T02:41:34.499Z,0.00
2023-05-22T02:42:34.486Z,0.00
2023-05-22T02:43:34.484Z,0.00
2023-05-22T02:44:34.465Z,0.00
2023-05-22T02:45:34.456Z,0.00
2023-05-22T02:46:34.450Z,0.00
2023-05-22T02:47:34.484Z,0.00
2023-05-22T02:48:34.411Z,0.00
2023-05-22T02:49:34.404Z,0.00
2023-05-22T02:50:34.401Z,0.00
2023-05-22T02:51:34.386Z,0.00
2023-05-22T02:52:34.378Z,0.00
2023-05-22T02:53:34.367Z,0.00
2023-05-22T02:54:34.339Z,0.00
2023-05-22T02:55:34.337Z,0.00
2023-05-22T02:56:34.348Z,0.00
2023-05-22T02:57:34.324Z,0.00
2023-05-22T02:58:34.302Z,0.00
2023-05-22T02:59:34.290Z,0.00
2023-05-22T03:00:34.277Z,0.00
2023-05-22T03:01:34.342Z,0.00
2023-05-22T03:02:34.360Z,0.00
2023-05-22T03:03:34.356Z,0.00
2023-05-22T03:04:34.226Z,0.00
2023-05-22T03:05:34.247Z,0.00
2023-05-22T03:06:34.286Z,0.00
2023-05-22T03:07:34.208Z,0.00
2023-05-22T03:08:34.196Z,0.00
2023-05-22T03:09:34.174Z,0.00
2023-05-22T03:10:34.190Z,0.00
2023-05-22T03:11:34.163Z,0.00
2023-05-22T03:12:34.145Z,0.00
2023-05-22T03:13:34.135Z,0.00
2023-05-22T03:14:34.119Z,0.00
2023-05-22T03:15:34.135Z,0.00
2023-05-22T03:16:34.143Z,0.00
2023-05-22T03:17:34.136Z,0.00
2023-05-22T03:18:34.099Z,0.00
2023-05-22T03:19:34.116Z,0.00
2023-05-22T03:20:34.316Z,0.00
2023-05-22T03:21:34.060Z,0.00
2023-05-22T03:22:34.039Z,0.00
2023-05-22T03:23:34.055Z,0.00
2023-05-22T03:24:34.016Z,0.00
2023-05-22T03:25:34.176Z,0.00
2023-05-22T03:26:33.994Z,0.00
2023-05-22T03:27:33.977Z,0.00
2023-05-22T03:28:34.012Z,0.00
2023-05-22T03:29:33.968Z,0.00
2023-05-22T03:30:33.968Z,5.62
2023-05-22T03:31:33.952Z,5.62
2023-05-22T03:32:33.970Z,5.62
2023-05-22T03:33:33.993Z,5.62
2023-05-22T03:34:33.924Z,5.62
2023-05-22T03:35:33.912Z,5.62
2023-05-22T03:36:33.880Z,5.62
2023-05-22T03:37:33.871Z,5.62
2023-05-22T03:38:33.859Z,5.62
2023-05-22T03:39:33.868Z,5.62
2023-05-22T03:40:33.829Z,11.25
2023-05-22T03:41:33.870Z,11.25
2023-05-22T03:42:33.819Z,11.25
2023-05-22T03:43:33.815Z,11.25
2023-05-22T03:44:33.828Z,11.25
2023-05-22T03:45:33.849Z,11.25
2023-05-22T03:46:33.795Z,16.88
2023-05-22T03:47:33.824Z,16.88
2023-05-22T03:48:33.758Z,16.88
2023-05-22T03:49:33.756Z,16.88
2023-05-22T03:50:33.729Z,16.88
2023-05-22T03:51:33.718Z,22.50
2023-05-22T03:52:33.715Z,22.50
2023-05-22T03:53:33.706Z,22.50
2023-05-22T03:54:33.685Z,22.50
2023-05-22T03:55:33.701Z,22.50
2023-05-22T03:56:33.663Z,28.12
2023-05-22T03:57:33.669Z,28.12
2023-05-22T03:58:33.653Z,28.12
2023-05-22T03:59:33.650Z,28.12
2023-05-22T04:00:33.647Z,33.75
2023-05-22T04:01:33.628Z,33.75
2023-05-22T04:02:33.665Z,33.75
2023-05-22T04:03:33.683Z,39.38
2023-05-22T04:04:33.577Z,39.38
2023-05-22T04:05:33.632Z,39.38
2023-05-22T04:06:33.539Z,39.38
2023-05-22T04:07:33.560Z,45.00
2023-05-22T04:08:33.520Z,45.00
2023-05-22T04:09:33.519Z,45.00
2023-05-22T04:10:33.512Z,50.62
2023-05-22T04:11:33.498Z,50.62
2023-05-22T04:12:33.502Z,50.62
2023-05-22T04:13:33.480Z,56.25
2023-05-22T04:14:33.456Z,56.25
2023-05-22T04:15:33.490Z,56.25
2023-05-22T04:16:33.493Z,61.88
2023-05-22T04:17:33.749Z,61.88
2023-05-22T04:18:33.421Z,61.88
2023-05-22T04:19:33.490Z,67.50
2023-05-22T04:20:33.396Z,67.50
2023-05-22T04:21:33.456Z,67.50
2023-05-22T04:22:33.370Z,73.12
2023-05-22T04:23:33.370Z,73.12
2023-05-22T04:24:33.341Z,73.12
2023-05-22T04:25:33.351Z,78.75
2023-05-22T04:26:33.386Z,78.75
2023-05-22T04:27:33.313Z,78.75
2023-05-22T04:28:33.302Z,84.38
2023-05-22T04:29:33.336Z,84.38
2023-05-22T04:30:33.292Z,84.38
2023-05-22T04:31:33.376Z,90.00
2023-05-22T04:32:33.289Z,90.00
2023-05-22T04:33:33.242Z,90.00
2023-05-22T04:34:33.246Z,95.62
2023-05-22T04:35:33.241Z,95.62
2023-05-22T04:36:33.283Z,95.62
2023-05-22T04:37:33.214Z,101.25
2023-05-22T04:38:33.196Z,101.25
2023-05-22T04:39:33.208Z,101.25
2023-05-22T04:40:33.168Z,106.88
2023-05-22T04:41:33.172Z,106.88
2023-05-22T04:42:33.148Z,112.50
2023-05-22T04:43:33.154Z,112.50
2023-05-22T04:44:33.129Z,112.50
2023-05-22T04:45:33.192Z,118.12
2023-05-22T04:46:33.172Z,118.12
2023-05-22T04:47:33.133Z,118.12
2023-05-22T04:48:33.077Z,118.12
2023-05-22T04:49:33.113Z,123.75
2023-05-22T04:50:33.138Z,123.75
2023-05-22T04:51:33.159Z,129.38
2023-05-22T04:52:33.038Z,135.00
2023-05-22T04:53:33.027Z,135.00
2023-05-22T04:54:33.017Z,140.62
2023-05-22T04:55:33.006Z,140.62
2023-05-22T04:56:36.784Z,146.25
2023-05-22T04:57:32.978Z,151.88
2023-05-22T04:58:32.987Z,157.50
2023-05-22T04:59:32.966Z,157.50
2023-05-22T05:00:32.983Z,163.12
2023-05-22T05:01:33.602Z,168.75
2023-05-22T05:02:32.987Z,168.75
2023-05-22T05:03:32.954Z,174.38
2023-05-22T05:04:32.898Z,174.38
2023-05-22T05:05:32.893Z,180.00
2023-05-22T05:06:32.878Z,185.62
2023-05-22T05:07:32.889Z,191.25
2023-05-22T05:08:32.856Z,191.25
2023-05-22T05:09:32.844Z,196.88
2023-05-22T05:10:32.829Z,202.50
2023-05-22T05:11:32.853Z,208.12
2023-05-22T05:12:32.890Z,213.75
2023-05-22T05:13:32.835Z,219.38
2023-05-22T05:14:32.789Z,219.38
2023-05-22T05:15:32.789Z,225.00
2023-05-22T05:16:32.837Z,225.00
2023-05-22T05:17:32.780Z,230.62
2023-05-22T05:18:32.745Z,236.25
2023-05-22T05:19:34.779Z,241.88
2023-05-22T05:20:32.726Z,247.50
2023-05-22T05:21:32.718Z,253.12
2023-05-22T05:22:32.710Z,264.38
2023-05-22T05:23:32.707Z,270.00
2023-05-22T05:24:32.674Z,275.62
2023-05-22T05:25:32.794Z,281.25
2023-05-22T05:26:32.670Z,292.50
2023-05-22T05:27:32.665Z,298.12
2023-05-22T05:28:32.636Z,309.38
2023-05-22T05:29:32.625Z,320.62
2023-05-22T05:30:32.631Z,320.62
2023-05-22T05:31:32.627Z,337.50
2023-05-22T05:32:32.629Z,343.12
2023-05-22T05:33:32.597Z,354.38
2023-05-22T05:34:32.594Z,343.12
2023-05-22T05:35:32.564Z,354.38
2023-05-22T05:36:32.568Z,360.00
2023-05-22T05:37:32.584Z,354.38
2023-05-22T05:38:32.522Z,376.88
2023-05-22T05:39:32.520Z,393.75
2023-05-22T05:40:32.525Z,399.38
2023-05-22T05:41:32.501Z,405.00
2023-05-22T05:42:32.477Z,416.25
2023-05-22T05:43:32.483Z,421.88
2023-05-22T05:44:32.476Z,433.12
2023-05-22T05:45:32.469Z,433.12
2023-05-22T05:46:32.528Z,455.62
2023-05-22T05:47:32.488Z,421.88
2023-05-22T05:48:32.427Z,472.50
2023-05-22T05:49:34.184Z,489.38
2023-05-22T05:50:32.411Z,483.75
2023-05-22T05:51:32.384Z,472.50
2023-05-22T05:52:32.380Z,489.38
2023-05-22T05:53:32.396Z,466.88
2023-05-22T05:54:32.352Z,506.25
2023-05-22T05:55:33.892Z,511.88
2023-05-22T05:56:32.339Z,466.88
2023-05-22T05:57:32.327Z,540.00
2023-05-22T05:58:32.335Z,556.88
2023-05-22T05:59:32.304Z,562.50
2023-05-22T06:00:32.287Z,528.75
2023-05-22T06:01:32.281Z,551.25
2023-05-22T06:02:32.339Z,472.50
2023-05-22T06:03:32.366Z,511.88
2023-05-22T06:04:32.248Z,489.38
2023-05-22T06:05:32.280Z,444.38
2023-05-22T06:06:32.215Z,489.38
2023-05-22T06:07:32.231Z,438.75
2023-05-22T06:08:32.278Z,461.25
2023-05-22T06:09:32.192Z,444.38
2023-05-22T06:10:32.172Z,483.75
2023-05-22T06:11:32.171Z,472.50
2023-05-22T06:12:32.213Z,523.12
2023-05-22T06:13:32.169Z,579.38
2023-05-22T06:14:32.142Z,568.12
2023-05-22T06:15:32.174Z,551.25
2023-05-22T06:16:32.186Z,568.12
2023-05-22T06:17:32.134Z,630.00
2023-05-22T06:18:32.096Z,556.88
2023-05-22T06:19:32.224Z,517.50
2023-05-22T06:20:32.073Z,455.62
2023-05-22T06:21:32.054Z,585.00
2023-05-22T06:22:32.040Z,641.25
2023-05-22T06:23:32.184Z,736.88
2023-05-22T06:24:32.029Z,618.75
2023-05-22T06:25:32.010Z,781.88
2023-05-22T06:26:32.039Z,770.62
2023-05-22T06:27:32.102Z,669.38
2023-05-22T06:28:31.998Z,669.38
2023-05-22T06:29:32.060Z,663.75
2023-05-22T06:30:40.149Z,641.25
2023-05-22T06:31:32.949Z,731.25
2023-05-22T06:32:32.162Z,815.62
2023-05-22T06:33:31.952Z,849.38
2023-05-22T06:34:31.944Z,849.38
2023-05-22T06:35:31.909Z,725.62
2023-05-22T06:36:31.896Z,675.00
2023-05-22T06:37:31.885Z,697.50
2023-05-22T06:38:31.992Z,669.38
2023-05-22T06:39:32.214Z,618.75
2023-05-22T06:40:31.871Z,669.38
2023-05-22T06:41:31.829Z,624.38
2023-05-22T06:42:31.846Z,641.25
2023-05-22T06:43:31.813Z,753.75
2023-05-22T06:44:31.817Z,815.62
2023-05-22T06:45:31.919Z,742.50
2023-05-22T06:46:31.849Z,703.12
2023-05-22T06:47:31.792Z,669.38
2023-05-22T06:48:31.844Z,573.75
2023-05-22T06:49:31.761Z,596.25
2023-05-22T06:50:31.756Z,697.50
2023-05-22T06:51:31.732Z,736.88
2023-05-22T06:52:31.722Z,658.12
2023-05-22T06:53:31.702Z,680.62
2023-05-22T06:54:31.697Z,641.25
2023-05-22T06:55:31.698Z,641.25
2023-05-22T06:56:31.699Z,635.62
2023-05-22T06:57:31.671Z,669.38
2023-05-22T06:58:31.683Z,556.88
2023-05-22T06:59:31.771Z,551.25
2023-05-22T07:00:31.646Z,528.75
2023-05-22T07:01:31.686Z,534.38
2023-05-22T07:02:31.632Z,601.88
2023-05-22T07:03:31.628Z,641.25
2023-05-22T07:04:31.625Z,731.25
2023-05-22T07:05:31.709Z,961.88
2023-05-22T07:06:31.584Z,916.88
2023-05-22T07:07:31.612Z,894.38
2023-05-22T07:08:31.567Z,793.12
2023-05-22T07:09:31.550Z,714.38
2023-05-22T07:10:31.531Z,669.38
2023-05-22T07:11:31.517Z,691.88
2023-05-22T07:12:31.507Z,736.88
2023-05-22T07:13:31.503Z,849.38
2023-05-22T07:14:31.509Z,1046.25
2023-05-22T07:15:31.468Z,1372.50
2023-05-22T07:16:31.559Z,961.88
2023-05-22T07:17:31.535Z,939.38
2023-05-22T07:18:31.435Z,731.25
2023-05-22T07:19:31.493Z,675.00
2023-05-22T07:20:31.418Z,680.62
2023-05-22T07:21:31.418Z,630.00
2023-05-22T07:22:31.409Z,607.50
2023-05-22T07:23:31.386Z,618.75
2023-05-22T07:24:31.376Z,641.25
2023-05-22T07:25:31.355Z,646.88
2023-05-22T07:26:31.940Z,697.50
2023-05-22T07:27:31.332Z,810.00
2023-05-22T07:28:31.337Z,866.25
2023-05-22T07:29:31.309Z,894.38
2023-05-22T07:30:31.307Z,973.12
2023-05-22T07:31:31.368Z,894.38
2023-05-22T07:32:31.340Z,787.50
2023-05-22T07:33:31.271Z,720.00
2023-05-22T07:34:31.257Z,663.75
2023-05-22T07:35:31.250Z,635.62
2023-05-22T07:36:31.251Z,635.62
2023-05-22T07:37:31.240Z,618.75
2023-05-22T07:38:31.219Z,618.75
2023-05-22T07:39:31.204Z,630.00
2023-05-22T07:40:31.199Z,630.00
2023-05-22T07:41:31.194Z,658.12
2023-05-22T07:42:31.193Z,708.75
2023-05-22T07:43:31.176Z,770.62
2023-05-22T07:44:31.162Z,860.62
2023-05-22T07:45:31.150Z,933.75
2023-05-22T07:46:31.219Z,939.38
2023-05-22T07:47:31.155Z,939.38
2023-05-22T07:48:31.105Z,832.50
2023-05-22T07:49:31.089Z,765.00
2023-05-22T07:50:31.084Z,720.00
2023-05-22T07:51:31.081Z,765.00
2023-05-22T07:52:31.083Z,905.62
2023-05-22T07:53:31.049Z,1001.25
2023-05-22T07:54:31.047Z,1001.25
2023-05-22T07:55:31.031Z,1068.75
2023-05-22T07:56:31.040Z,967.50
2023-05-22T07:57:31.046Z,905.62
2023-05-22T07:58:30.995Z,905.62
2023-05-22T07:59:30.986Z,933.75
2023-05-22T08:00:30.988Z,1006.88
2023-05-22T08:01:30.962Z,1102.50
2023-05-22T08:02:31.062Z,1035.00
2023-05-22T08:03:31.003Z,888.75
2023-05-22T08:04:31.080Z,838.12
2023-05-22T08:05:30.954Z,855.00
2023-05-22T08:06:30.925Z,911.25
2023-05-22T08:07:30.897Z,956.25
2023-05-22T08:08:31.954Z,1023.75
2023-05-22T08:09:30.873Z,1400.62
2023-05-22T08:10:46.400Z,1541.25
2023-05-22T08:11:31.858Z,1344.38
2023-05-22T08:12:30.840Z,905.62
2023-05-22T08:13:30.882Z,933.75
2023-05-22T08:14:30.829Z,1051.88
2023-05-22T08:15:30.820Z,1423.12
2023-05-22T08:16:30.815Z,1591.88
2023-05-22T08:17:30.826Z,1102.50
2023-05-22T08:18:30.825Z,990.00
2023-05-22T08:19:30.828Z,939.38
2023-05-22T08:20:30.876Z,911.25
2023-05-22T08:21:30.748Z,995.62
2023-05-22T08:22:30.734Z,1108.12
2023-05-22T08:23:30.725Z,1068.75
2023-05-22T08:24:30.745Z,1108.12
2023-05-22T08:25:30.706Z,1192.50
2023-05-22T08:26:32.232Z,1175.62
2023-05-22T08:27:30.674Z,1102.50
2023-05-22T08:28:30.680Z,1035.00
2023-05-22T08:29:30.667Z,1006.88
2023-05-22T08:30:30.640Z,995.62
2023-05-22T08:31:30.717Z,1029.38
2023-05-22T08:32:31.440Z,1040.62
2023-05-22T08:33:30.620Z,1006.88
2023-05-22T08:34:30.602Z,1035.00
2023-05-22T08:35:30.666Z,950.62
2023-05-22T08:36:30.585Z,911.25
2023-05-22T08:37:30.580Z,900.00
2023-05-22T08:38:30.558Z,1035.00
2023-05-22T08:39:30.543Z,1411.88
2023-05-22T08:40:30.529Z,1524.38
2023-05-22T08:41:30.604Z,1580.62
2023-05-22T08:42:30.513Z,1113.75
2023-05-22T08:43:30.558Z,1057.50
2023-05-22T08:44:30.490Z,1141.88
2023-05-22T08:45:30.497Z,1147.50
2023-05-22T08:46:30.480Z,1119.38
2023-05-22T08:47:30.503Z,1260.00
2023-05-22T08:48:30.460Z,1558.12
2023-05-22T08:49:30.438Z,1136.25
2023-05-22T08:50:30.437Z,1130.62
2023-05-22T08:51:30.413Z,1265.62
2023-05-22T08:52:30.408Z,1485.00
2023-05-22T08:53:30.400Z,1237.50
2023-05-22T08:54:30.381Z,1243.12
2023-05-22T08:55:30.386Z,1575.00
2023-05-22T08:56:31.030Z,1265.62
2023-05-22T08:57:30.372Z,1800.00
2023-05-22T08:58:30.368Z,1023.75
2023-05-22T08:59:30.334Z,990.00
2023-05-22T09:00:30.328Z,1091.25
2023-05-22T09:01:30.345Z,1710.00
2023-05-22T09:02:30.324Z,1760.62
2023-05-22T09:03:30.545Z,1968.75
2023-05-22T09:04:30.283Z,2019.38
2023-05-22T09:05:30.274Z,1614.38
2023-05-22T09:06:30.282Z,2193.75
2023-05-22T09:07:30.253Z,2221.88
2023-05-22T09:08:30.249Z,1856.25
2023-05-22T09:09:30.262Z,1918.12
2023-05-22T09:10:30.212Z,2531.25
2023-05-22T09:11:30.223Z,2424.38
2023-05-22T09:12:30.200Z,2407.50
2023-05-22T09:13:30.339Z,2396.25
2023-05-22T09:14:30.203Z,2401.88
2023-05-22T09:15:30.265Z,1715.62
2023-05-22T09:16:30.182Z,1710.00
2023-05-22T09:17:30.263Z,1929.38
2023-05-22T09:18:30.267Z,1518.75
2023-05-22T09:19:30.205Z,1586.25
2023-05-22T09:20:30.167Z,1693.12
2023-05-22T09:21:30.816Z,1586.25
2023-05-22T09:22:30.138Z,2058.75
2023-05-22T09:23:30.159Z,1648.12
2023-05-22T09:24:30.125Z,1288.12
2023-05-22T09:25:30.063Z,1282.50
2023-05-22T09:26:30.052Z,1496.25
2023-05-22T09:27:30.044Z,2098.12
2023-05-22T09:28:30.055Z,1485.00
2023-05-22T09:29:30.069Z,1985.62
2023-05-22T09:30:30.045Z,1974.38
2023-05-22T09:31:30.152Z,1271.25
2023-05-22T09:32:30.066Z,1119.38
2023-05-22T09:33:29.998Z,1170.00
2023-05-22T09:34:29.977Z,1316.25
2023-05-22T09:35:29.961Z,1749.38
2023-05-22T09:36:29.955Z,1383.75
2023-05-22T09:37:29.959Z,1158.75
2023-05-22T09:38:29.944Z,1125.00
2023-05-22T09:39:29.911Z,1321.88
2023-05-22T09:40:29.906Z,1974.38
2023-05-22T09:41:29.906Z,1344.38
2023-05-22T09:42:29.907Z,1170.00
2023-05-22T09:43:29.885Z,1040.62
2023-05-22T09:44:29.870Z,1068.75
2023-05-22T09:45:29.845Z,1198.12
2023-05-22T09:46:29.927Z,1119.38
2023-05-22T09:47:29.866Z,1293.75
2023-05-22T09:48:29.863Z,1552.50
2023-05-22T09:49:29.824Z,1220.62
2023-05-22T09:50:29.819Z,1018.12
2023-05-22T09:51:29.801Z,945.00
2023-05-22T09:52:29.780Z,933.75
2023-05-22T09:53:29.789Z,978.75
2023-05-22T09:54:29.766Z,1096.88
2023-05-22T09:55:29.754Z,1136.25
2023-05-22T09:56:38.676Z,939.38
2023-05-22T09:57:30.731Z,877.50
2023-05-22T09:58:29.734Z,945.00
2023-05-22T09:59:29.699Z,1063.12
2023-05-22T10:00:29.687Z,1141.88
2023-05-22T10:01:29.697Z,1220.62
2023-05-22T10:02:29.725Z,1777.50
2023-05-22T10:03:29.656Z,1181.25
2023-05-22T10:04:29.710Z,1215.00
2023-05-22T10:05:29.671Z,1220.62
2023-05-22T10:06:29.637Z,1310.62
2023-05-22T10:07:29.629Z,1434.38
2023-05-22T10:08:29.606Z,1451.25
2023-05-22T10:09:29.597Z,1080.00
2023-05-22T10:10:29.589Z,905.62
2023-05-22T10:11:30.371Z,1001.25
2023-05-22T10:12:29.580Z,1327.50
2023-05-22T10:13:29.548Z,1665.00
2023-05-22T10:14:30.910Z,1884.38
2023-05-22T10:15:29.570Z,1316.25
2023-05-22T10:16:29.599Z,1524.38
2023-05-22T10:17:29.566Z,1338.75
2023-05-22T10:18:29.516Z,1299.38
2023-05-22T10:19:29.559Z,1400.62
2023-05-22T10:20:29.491Z,1485.00
2023-05-22T10:21:29.462Z,1985.62
2023-05-22T10:22:29.461Z,1558.12
2023-05-22T10:23:29.464Z,1501.88
2023-05-22T10:24:29.435Z,1726.88
2023-05-22T10:25:29.422Z,1867.50
2023-05-22T10:26:29.412Z,2570.62
2023-05-22T10:27:29.401Z,1389.38
2023-05-22T10:28:29.401Z,1490.62
2023-05-22T10:29:29.379Z,1333.12
2023-05-22T10:30:29.387Z,1271.25
2023-05-22T10:31:29.355Z,1305.00
2023-05-22T10:32:29.379Z,1378.12
2023-05-22T10:33:29.366Z,1580.62
2023-05-22T10:34:29.332Z,1586.25
2023-05-22T10:35:29.323Z,1479.38
2023-05-22T10:36:29.314Z,2058.75
2023-05-22T10:37:29.311Z,3020.62
2023-05-22T10:38:29.394Z,3105.00
2023-05-22T10:39:29.326Z,3127.50
2023-05-22T10:40:29.375Z,2671.88
2023-05-22T10:41:29.252Z,3352.50
2023-05-22T10:42:29.266Z,3363.75
2023-05-22T10:43:29.238Z,3616.88
2023-05-22T10:44:29.258Z,1693.12
2023-05-22T10:45:29.245Z,1406.25
2023-05-22T10:46:29.313Z,2025.00
2023-05-22T10:47:29.221Z,3588.75
2023-05-22T10:48:29.178Z,1912.50
2023-05-22T10:49:29.178Z,1895.62
2023-05-22T10:50:29.169Z,1580.62
2023-05-22T10:51:29.147Z,1462.50
2023-05-22T10:52:29.140Z,1642.50
2023-05-22T10:53:29.147Z,1625.62
2023-05-22T10:54:29.222Z,1822.50
2023-05-22T10:55:29.114Z,1597.50
2023-05-22T10:56:29.187Z,1670.62
2023-05-22T10:57:29.081Z,2323.12
2023-05-22T10:58:29.101Z,2846.25
2023-05-22T10:59:29.057Z,3262.50
2023-05-22T11:00:29.092Z,3847.50
2023-05-22T11:01:29.080Z,1974.38
2023-05-22T11:02:29.329Z,1350.00
2023-05-22T11:03:29.103Z,1276.88
2023-05-22T11:04:29.099Z,1462.50
2023-05-22T11:05:29.008Z,1530.00
2023-05-22T11:06:28.986Z,1653.75
2023-05-22T11:07:28.976Z,3909.38
2023-05-22T11:08:29.003Z,2435.62
2023-05-22T11:09:29.071Z,3954.38
2023-05-22T11:10:28.967Z,2233.12
2023-05-22T11:11:28.934Z,1788.75
2023-05-22T11:12:28.994Z,1918.12
2023-05-22T11:13:29.628Z,1659.38
2023-05-22T11:14:28.940Z,3307.50
2023-05-22T11:15:28.927Z,2328.75
2023-05-22T11:16:28.909Z,1642.50
2023-05-22T11:17:28.933Z,1530.00
2023-05-22T11:18:28.902Z,1710.00
2023-05-22T11:19:28.911Z,2086.88
2023-05-22T11:20:28.857Z,3335.62
2023-05-22T11:21:28.833Z,2300.62
2023-05-22T11:22:28.830Z,2705.62
2023-05-22T11:23:28.827Z,2846.25
2023-05-22T11:24:28.809Z,3898.12
2023-05-22T11:25:28.804Z,3481.88
2023-05-22T11:26:28.785Z,3031.88
2023-05-22T11:27:28.785Z,2711.25
2023-05-22T11:28:28.838Z,3465.00
2023-05-22T11:29:29.593Z,3796.88
2023-05-22T11:30:28.754Z,3729.38
2023-05-22T11:31:28.819Z,3695.62
2023-05-22T11:32:28.758Z,3988.12
2023-05-22T11:33:28.732Z,4044.38
2023-05-22T11:34:28.734Z,3976.88
2023-05-22T11:35:28.688Z,3791.25
2023-05-22T11:36:28.679Z,3718.12
2023-05-22T11:37:28.692Z,3526.88
2023-05-22T11:38:28.754Z,3763.12
2023-05-22T11:39:28.693Z,3712.50
2023-05-22T11:40:28.724Z,3796.88
2023-05-22T11:41:29.076Z,3763.12
2023-05-22T11:42:28.649Z,2683.12
2023-05-22T11:43:28.600Z,3397.50
2023-05-22T11:44:28.686Z,3442.50
2023-05-22T11:45:28.585Z,3673.12
2023-05-22T11:46:28.648Z,3678.75
2023-05-22T11:47:28.877Z,3802.50
2023-05-22T11:48:28.566Z,3847.50
2023-05-22T11:49:28.550Z,4117.50
2023-05-22T11:50:41.648Z,4027.50
2023-05-22T11:51:29.537Z,3931.88
2023-05-22T11:52:28.878Z,3858.75
2023-05-22T11:53:28.515Z,3757.50
2023-05-22T11:54:28.518Z,3729.38
2023-05-22T11:55:28.508Z,3746.25
2023-05-22T11:56:29.006Z,3825.00
2023-05-22T11:57:28.520Z,4038.75
2023-05-22T11:58:28.558Z,3616.88
2023-05-22T11:59:28.528Z,3706.88
2023-05-22T12:00:28.568Z,2553.75
2023-05-22T12:01:28.440Z,3791.25
2023-05-22T12:02:28.487Z,3594.38
2023-05-22T12:03:28.513Z,3549.38
2023-05-22T12:04:28.464Z,3656.25
2023-05-22T12:05:28.404Z,3841.88
2023-05-22T12:06:28.396Z,3802.50
2023-05-22T12:07:28.364Z,3678.75
2023-05-22T12:08:28.391Z,3380.62
2023-05-22T12:09:28.355Z,3543.75
2023-05-22T12:10:28.350Z,3583.12
2023-05-22T12:11:28.329Z,3532.50
2023-05-22T12:12:28.334Z,3571.88
2023-05-22T12:13:28.328Z,3718.12
2023-05-22T12:14:28.310Z,3830.62
2023-05-22T12:15:28.296Z,3673.12
2023-05-22T12:16:28.339Z,3898.12
2023-05-22T12:17:28.305Z,3830.62
2023-05-22T12:18:28.281Z,3605.62
2023-05-22T12:19:28.266Z,3661.88
2023-05-22T12:20:28.234Z,3605.62
2023-05-22T12:21:28.221Z,3678.75
2023-05-22T12:22:28.220Z,3723.75
2023-05-22T12:23:28.210Z,3796.88
2023-05-22T12:24:28.182Z,3740.62
2023-05-22T12:25:28.186Z,3521.25
2023-05-22T12:26:28.176Z,3780.00
2023-05-22T12:27:28.178Z,3813.75
2023-05-22T12:28:28.164Z,2531.25
2023-05-22T12:29:28.138Z,2109.38
2023-05-22T12:30:28.126Z,2885.62
2023-05-22T12:31:28.309Z,2244.38
2023-05-22T12:32:28.245Z,3290.62
2023-05-22T12:33:28.100Z,2452.50
2023-05-22T12:34:28.100Z,3555.00
2023-05-22T12:35:28.086Z,3436.88